sensor_id;sensor_type;location;lat;lon;timestamp;P1;durP1;ratioP1;P2;durP2;ratioP2
22883;SDS011;13386;24.786;110.488;2022-08-30T00:00:09;12.25;;;5.78;;
22883;SDS011;13386;24.786;110.488;2022-08-30T00:02:56;11.90;;;5.18;;
22883;SDS011;13386;24.786;110.488;2022-08-30T00:05:27;14.82;;;5.80;;
22883;SDS011;13386;24.786;110.488;2022-08-30T00:08:00;10.20;;;4.65;;
22883;SDS011;13386;24.786;110.488;2022-08-30T00:10:31;9.30;;;4.40;;
22883;SDS011;13386;24.786;110.488;2022-08-30T00:13:02;9.73;;;4.53;;
22883;SDS011;13386;24.786;110.488;2022-08-30T00:15:33;10.60;;;4.40;;
22883;SDS011;13386;24.786;110.488;2022-08-30T00:18:04;10.55;;;4.80;;
22883;SDS011;13386;24.786;110.488;2022-08-30T00:20:35;10.30;;;4.47;;
22883;SDS011;13386;24.786;110.488;2022-08-30T00:23:08;13.02;;;4.97;;
22883;SDS011;13386;24.786;110.488;2022-08-30T00:25:39;11.13;;;4.60;;
22883;SDS011;13386;24.786;110.488;2022-08-30T00:28:10;11.50;;;4.53;;
22883;SDS011;13386;24.786;110.488;2022-08-30T00:30:41;11.80;;;4.88;;
22883;SDS011;13386;24.786;110.488;2022-08-30T00:33:12;10.95;;;5.07;;
22883;SDS011;13386;24.786;110.488;2022-08-30T00:35:43;15.60;;;5.18;;
22883;SDS011;13386;24.786;110.488;2022-08-30T00:38:16;13.05;;;4.82;;
22883;SDS011;13386;24.786;110.488;2022-08-30T00:40:48;15.15;;;5.65;;
22883;SDS011;13386;24.786;110.488;2022-08-30T00:43:20;14.70;;;5.30;;
22883;SDS011;13386;24.786;110.488;2022-08-30T00:45:51;15.77;;;5.53;;
22883;SDS011;13386;24.786;110.488;2022-08-30T00:48:23;13.95;;;5.90;;
22883;SDS011;13386;24.786;110.488;2022-08-30T00:50:54;17.65;;;6.35;;
22883;SDS011;13386;24.786;110.488;2022-08-30T00:53:29;12.63;;;5.43;;
22883;SDS011;13386;24.786;110.488;2022-08-30T00:58:31;14.93;;;5.93;;
22883;SDS011;13386;24.786;110.488;2022-08-30T01:01:03;13.98;;;6.35;;
22883;SDS011;13386;24.786;110.488;2022-08-30T01:03:35;14.75;;;6.30;;
22883;SDS011;13386;24.786;110.488;2022-08-30T01:06:07;14.00;;;6.15;;
22883;SDS011;13386;24.786;110.488;2022-08-30T01:08:40;15.23;;;6.50;;
22883;SDS011;13386;24.786;110.488;2022-08-30T01:11:11;14.48;;;6.15;;
22883;SDS011;13386;24.786;110.488;2022-08-30T01:13:43;15.60;;;6.30;;
22883;SDS011;13386;24.786;110.488;2022-08-30T01:16:14;12.20;;;5.78;;
22883;SDS011;13386;24.786;110.488;2022-08-30T01:18:45;12.93;;;6.18;;
22883;SDS011;13386;24.786;110.488;2022-08-30T01:21:16;15.20;;;7.63;;
22883;SDS011;13386;24.786;110.488;2022-08-30T01:23:50;14.63;;;6.65;;
22883;SDS011;13386;24.786;110.488;2022-08-30T01:26:22;15.25;;;6.75;;
22883;SDS011;13386;24.786;110.488;2022-08-30T01:28:54;23.33;;;9.38;;
22883;SDS011;13386;24.786;110.488;2022-08-30T01:31:26;16.80;;;7.30;;
22883;SDS011;13386;24.786;110.488;2022-08-30T01:33:57;12.88;;;5.88;;
22883;SDS011;13386;24.786;110.488;2022-08-30T01:36:27;15.48;;;6.55;;
22883;SDS011;13386;24.786;110.488;2022-08-30T01:39:00;19.80;;;7.35;;
22883;SDS011;13386;24.786;110.488;2022-08-30T01:41:32;13.98;;;6.13;;
22883;SDS011;13386;24.786;110.488;2022-08-30T01:44:04;12.30;;;5.80;;
22883;SDS011;13386;24.786;110.488;2022-08-30T01:46:37;15.63;;;5.85;;
22883;SDS011;13386;24.786;110.488;2022-08-30T01:49:09;11.52;;;5.53;;
22883;SDS011;13386;24.786;110.488;2022-08-30T01:51:40;12.15;;;5.22;;
22883;SDS011;13386;24.786;110.488;2022-08-30T01:54:13;13.20;;;5.60;;
22883;SDS011;13386;24.786;110.488;2022-08-30T01:56:44;11.70;;;5.32;;
22883;SDS011;13386;24.786;110.488;2022-08-30T01:59:14;11.27;;;5.65;;
22883;SDS011;13386;24.786;110.488;2022-08-30T02:01:45;14.02;;;5.97;;
22883;SDS011;13386;24.786;110.488;2022-08-30T02:04:17;12.73;;;5.70;;
22883;SDS011;13386;24.786;110.488;2022-08-30T02:06:49;13.30;;;5.60;;
22883;SDS011;13386;24.786;110.488;2022-08-30T02:09:23;12.57;;;4.95;;
22883;SDS011;13386;24.786;110.488;2022-08-30T02:11:54;12.05;;;5.57;;
22883;SDS011;13386;24.786;110.488;2022-08-30T02:14:25;13.25;;;5.25;;
22883;SDS011;13386;24.786;110.488;2022-08-30T02:16:56;14.30;;;5.55;;
22883;SDS011;13386;24.786;110.488;2022-08-30T02:19:26;16.00;;;5.43;;
22883;SDS011;13386;24.786;110.488;2022-08-30T02:21:57;12.75;;;5.75;;
22883;SDS011;13386;24.786;110.488;2022-08-30T02:24:30;12.02;;;5.50;;
22883;SDS011;13386;24.786;110.488;2022-08-30T02:27:01;19.85;;;5.65;;
22883;SDS011;13386;24.786;110.488;2022-08-30T02:29:31;14.23;;;5.63;;
22883;SDS011;13386;24.786;110.488;2022-08-30T02:32:02;12.43;;;5.35;;
22883;SDS011;13386;24.786;110.488;2022-08-30T02:34:34;12.23;;;5.55;;
22883;SDS011;13386;24.786;110.488;2022-08-30T02:37:07;11.95;;;5.53;;
22883;SDS011;13386;24.786;110.488;2022-08-30T02:39:40;11.32;;;5.85;;
22883;SDS011;13386;24.786;110.488;2022-08-30T02:42:11;12.73;;;5.28;;
22883;SDS011;13386;24.786;110.488;2022-08-30T02:44:42;13.55;;;5.72;;
22883;SDS011;13386;24.786;110.488;2022-08-30T02:47:12;14.32;;;5.88;;
22883;SDS011;13386;24.786;110.488;2022-08-30T02:49:44;11.35;;;5.57;;
22883;SDS011;13386;24.786;110.488;2022-08-30T02:52:15;10.45;;;5.45;;
22883;SDS011;13386;24.786;110.488;2022-08-30T02:54:48;15.77;;;5.18;;
22883;SDS011;13386;24.786;110.488;2022-08-30T02:57:19;13.07;;;5.50;;
22883;SDS011;13386;24.786;110.488;2022-08-30T02:59:50;8.45;;;4.60;;
22883;SDS011;13386;24.786;110.488;2022-08-30T03:02:21;10.48;;;5.05;;
22883;SDS011;13386;24.786;110.488;2022-08-30T03:04:51;9.95;;;4.75;;
22883;SDS011;13386;24.786;110.488;2022-08-30T03:07:23;13.45;;;5.25;;
22883;SDS011;13386;24.786;110.488;2022-08-30T03:09:56;10.90;;;5.00;;
22883;SDS011;13386;24.786;110.488;2022-08-30T03:12:27;9.50;;;5.00;;
22883;SDS011;13386;24.786;110.488;2022-08-30T03:14:58;11.13;;;5.28;;
22883;SDS011;13386;24.786;110.488;2022-08-30T03:17:30;12.30;;;5.28;;
22883;SDS011;13386;24.786;110.488;2022-08-30T03:20:02;13.52;;;5.22;;
22883;SDS011;13386;24.786;110.488;2022-08-30T03:22:33;11.60;;;5.25;;
22883;SDS011;13386;24.786;110.488;2022-08-30T03:25:06;11.07;;;5.53;;
22883;SDS011;13386;24.786;110.488;2022-08-30T03:27:41;12.82;;;5.80;;
22883;SDS011;13386;24.786;110.488;2022-08-30T03:30:16;12.48;;;5.22;;
22883;SDS011;13386;24.786;110.488;2022-08-30T03:32:47;12.93;;;5.32;;
22883;SDS011;13386;24.786;110.488;2022-08-30T03:35:18;12.30;;;5.30;;
22883;SDS011;13386;24.786;110.488;2022-08-30T03:37:49;9.40;;;5.32;;
22883;SDS011;13386;24.786;110.488;2022-08-30T03:40:23;10.50;;;4.97;;
22883;SDS011;13386;24.786;110.488;2022-08-30T03:45:24;13.45;;;5.82;;
22883;SDS011;13386;24.786;110.488;2022-08-30T03:47:55;14.38;;;5.13;;
22883;SDS011;13386;24.786;110.488;2022-08-30T03:50:26;11.05;;;5.28;;
22883;SDS011;13386;24.786;110.488;2022-08-30T03:52:57;11.63;;;4.85;;
22883;SDS011;13386;24.786;110.488;2022-08-30T03:55:30;12.02;;;5.15;;
22883;SDS011;13386;24.786;110.488;2022-08-30T03:58:01;13.90;;;5.10;;
22883;SDS011;13386;24.786;110.488;2022-08-30T04:00:32;13.88;;;5.25;;
22883;SDS011;13386;24.786;110.488;2022-08-30T04:03:03;11.25;;;5.20;;
22883;SDS011;13386;24.786;110.488;2022-08-30T04:05:34;9.38;;;4.70;;
22883;SDS011;13386;24.786;110.488;2022-08-30T04:08:04;12.40;;;5.20;;
22883;SDS011;13386;24.786;110.488;2022-08-30T04:10:42;12.68;;;5.40;;
22883;SDS011;13386;24.786;110.488;2022-08-30T04:13:13;10.02;;;4.80;;
22883;SDS011;13386;24.786;110.488;2022-08-30T04:15:44;9.73;;;4.75;;
22883;SDS011;13386;24.786;110.488;2022-08-30T04:18:15;9.07;;;4.55;;
22883;SDS011;13386;24.786;110.488;2022-08-30T04:20:46;11.15;;;4.80;;
22883;SDS011;13386;24.786;110.488;2022-08-30T04:23:17;9.27;;;4.70;;
22883;SDS011;13386;24.786;110.488;2022-08-30T04:25:50;9.35;;;4.28;;
22883;SDS011;13386;24.786;110.488;2022-08-30T04:28:22;11.10;;;4.82;;
22883;SDS011;13386;24.786;110.488;2022-08-30T04:30:55;9.88;;;4.43;;
22883;SDS011;13386;24.786;110.488;2022-08-30T04:33:25;9.75;;;4.65;;
22883;SDS011;13386;24.786;110.488;2022-08-30T04:35:57;13.30;;;5.10;;
22883;SDS011;13386;24.786;110.488;2022-08-30T04:38:32;8.60;;;4.30;;
22883;SDS011;13386;24.786;110.488;2022-08-30T04:41:07;9.95;;;4.60;;
22883;SDS011;13386;24.786;110.488;2022-08-30T04:43:38;9.15;;;4.35;;
22883;SDS011;13386;24.786;110.488;2022-08-30T04:46:10;9.75;;;4.05;;
22883;SDS011;13386;24.786;110.488;2022-08-30T04:51:15;14.07;;;4.20;;
22883;SDS011;13386;24.786;110.488;2022-08-30T04:53:55;9.13;;;4.15;;
22883;SDS011;13386;24.786;110.488;2022-08-30T04:56:27;10.82;;;4.47;;
22883;SDS011;13386;24.786;110.488;2022-08-30T04:58:58;7.82;;;4.00;;
22883;SDS011;13386;24.786;110.488;2022-08-30T05:01:29;8.85;;;4.18;;
22883;SDS011;13386;24.786;110.488;2022-08-30T05:04:00;7.97;;;3.97;;
22883;SDS011;13386;24.786;110.488;2022-08-30T05:06:33;7.70;;;3.97;;
22883;SDS011;13386;24.786;110.488;2022-08-30T05:09:04;7.35;;;3.65;;
22883;SDS011;13386;24.786;110.488;2022-08-30T05:11:37;6.88;;;3.63;;
22883;SDS011;13386;24.786;110.488;2022-08-30T05:14:09;10.40;;;4.07;;
22883;SDS011;13386;24.786;110.488;2022-08-30T05:16:42;7.60;;;4.00;;
22883;SDS011;13386;24.786;110.488;2022-08-30T05:19:18;9.07;;;3.30;;
22883;SDS011;13386;24.786;110.488;2022-08-30T05:21:50;7.57;;;3.10;;
22883;SDS011;13386;24.786;110.488;2022-08-30T05:24:21;7.55;;;3.38;;
22883;SDS011;13386;24.786;110.488;2022-08-30T05:26:53;15.35;;;4.80;;
22883;SDS011;13386;24.786;110.488;2022-08-30T05:29:24;14.00;;;4.65;;
22883;SDS011;13386;24.786;110.488;2022-08-30T05:31:55;10.20;;;3.30;;
22883;SDS011;13386;24.786;110.488;2022-08-30T05:34:30;7.47;;;3.20;;
22883;SDS011;13386;24.786;110.488;2022-08-30T05:37:01;7.35;;;3.28;;
22883;SDS011;13386;24.786;110.488;2022-08-30T05:39:34;11.23;;;4.50;;
22883;SDS011;13386;24.786;110.488;2022-08-30T05:42:08;6.53;;;3.30;;
22883;SDS011;13386;24.786;110.488;2022-08-30T05:44:39;7.88;;;3.55;;
22883;SDS011;13386;24.786;110.488;2022-08-30T05:49:43;6.28;;;2.90;;
22883;SDS011;13386;24.786;110.488;2022-08-30T05:52:14;6.55;;;3.20;;
22883;SDS011;13386;24.786;110.488;2022-08-30T05:54:49;7.82;;;3.50;;
22883;SDS011;13386;24.786;110.488;2022-08-30T05:57:25;6.13;;;3.15;;
22883;SDS011;13386;24.786;110.488;2022-08-30T06:00:00;4.78;;;2.60;;
22883;SDS011;13386;24.786;110.488;2022-08-30T06:02:38;5.90;;;2.78;;
22883;SDS011;13386;24.786;110.488;2022-08-30T06:05:09;5.40;;;2.80;;
22883;SDS011;13386;24.786;110.488;2022-08-30T06:07:41;8.43;;;3.10;;
22883;SDS011;13386;24.786;110.488;2022-08-30T06:10:12;5.47;;;2.95;;
22883;SDS011;13386;24.786;110.488;2022-08-30T06:12:44;6.38;;;2.90;;
22883;SDS011;13386;24.786;110.488;2022-08-30T06:15:24;5.07;;;2.80;;
22883;SDS011;13386;24.786;110.488;2022-08-30T06:17:55;7.70;;;3.08;;
22883;SDS011;13386;24.786;110.488;2022-08-30T06:20:26;6.38;;;3.22;;
22883;SDS011;13386;24.786;110.488;2022-08-30T06:23:01;5.30;;;3.00;;
22883;SDS011;13386;24.786;110.488;2022-08-30T06:25:34;4.88;;;2.40;;
22883;SDS011;13386;24.786;110.488;2022-08-30T06:28:09;5.55;;;2.90;;
22883;SDS011;13386;24.786;110.488;2022-08-30T06:30:40;6.00;;;3.05;;
22883;SDS011;13386;24.786;110.488;2022-08-30T06:33:11;5.68;;;3.00;;
22883;SDS011;13386;24.786;110.488;2022-08-30T06:35:42;6.57;;;2.95;;
22883;SDS011;13386;24.786;110.488;2022-08-30T06:38:14;7.80;;;3.20;;
22883;SDS011;13386;24.786;110.488;2022-08-30T06:40:44;5.90;;;3.03;;
22883;SDS011;13386;24.786;110.488;2022-08-30T06:43:19;6.30;;;2.80;;
22883;SDS011;13386;24.786;110.488;2022-08-30T06:45:52;4.65;;;2.63;;
22883;SDS011;13386;24.786;110.488;2022-08-30T06:48:22;5.55;;;2.65;;
22883;SDS011;13386;24.786;110.488;2022-08-30T06:50:53;5.80;;;2.85;;
22883;SDS011;13386;24.786;110.488;2022-08-30T06:53:28;7.43;;;2.97;;
22883;SDS011;13386;24.786;110.488;2022-08-30T06:56:04;7.88;;;3.03;;
22883;SDS011;13386;24.786;110.488;2022-08-30T06:58:40;4.53;;;2.53;;
22883;SDS011;13386;24.786;110.488;2022-08-30T07:01:12;4.40;;;2.80;;
22883;SDS011;13386;24.786;110.488;2022-08-30T07:03:43;5.63;;;2.90;;
22883;SDS011;13386;24.786;110.488;2022-08-30T07:06:14;4.53;;;2.38;;
22883;SDS011;13386;24.786;110.488;2022-08-30T07:08:46;5.50;;;2.63;;
22883;SDS011;13386;24.786;110.488;2022-08-30T07:11:23;6.15;;;2.55;;
22883;SDS011;13386;24.786;110.488;2022-08-30T07:13:59;5.40;;;2.65;;
22883;SDS011;13386;24.786;110.488;2022-08-30T07:16:33;6.47;;;3.38;;
22883;SDS011;13386;24.786;110.488;2022-08-30T07:19:07;7.80;;;3.05;;
22883;SDS011;13386;24.786;110.488;2022-08-30T07:21:40;6.43;;;2.80;;
22883;SDS011;13386;24.786;110.488;2022-08-30T07:24:13;4.28;;;2.25;;
22883;SDS011;13386;24.786;110.488;2022-08-30T07:26:45;5.15;;;2.90;;
22883;SDS011;13386;24.786;110.488;2022-08-30T07:29:20;4.70;;;2.85;;
22883;SDS011;13386;24.786;110.488;2022-08-30T07:31:52;6.18;;;2.65;;
22883;SDS011;13386;24.786;110.488;2022-08-30T07:34:25;4.32;;;2.80;;
22883;SDS011;13386;24.786;110.488;2022-08-30T07:37:05;6.32;;;2.80;;
22883;SDS011;13386;24.786;110.488;2022-08-30T07:39:36;7.50;;;2.80;;
22883;SDS011;13386;24.786;110.488;2022-08-30T07:42:11;6.68;;;2.90;;
22883;SDS011;13386;24.786;110.488;2022-08-30T07:44:44;6.53;;;2.60;;
22883;SDS011;13386;24.786;110.488;2022-08-30T07:47:23;4.72;;;2.63;;
22883;SDS011;13386;24.786;110.488;2022-08-30T07:49:58;5.78;;;2.83;;
22883;SDS011;13386;24.786;110.488;2022-08-30T07:52:30;6.88;;;2.85;;
22883;SDS011;13386;24.786;110.488;2022-08-30T07:55:01;6.55;;;2.80;;
22883;SDS011;13386;24.786;110.488;2022-08-30T07:57:35;7.55;;;2.88;;
22883;SDS011;13386;24.786;110.488;2022-08-30T08:00:11;6.15;;;3.10;;
22883;SDS011;13386;24.786;110.488;2022-08-30T08:02:42;7.47;;;3.05;;
22883;SDS011;13386;24.786;110.488;2022-08-30T08:05:15;6.55;;;2.85;;
22883;SDS011;13386;24.786;110.488;2022-08-30T08:07:48;8.00;;;2.85;;
22883;SDS011;13386;24.786;110.488;2022-08-30T08:10:19;6.25;;;2.80;;
22883;SDS011;13386;24.786;110.488;2022-08-30T08:15:28;7.10;;;3.25;;
22883;SDS011;13386;24.786;110.488;2022-08-30T08:17:58;7.15;;;3.05;;
22883;SDS011;13386;24.786;110.488;2022-08-30T08:20:29;5.85;;;2.70;;
22883;SDS011;13386;24.786;110.488;2022-08-30T08:23:00;5.53;;;2.92;;
22883;SDS011;13386;24.786;110.488;2022-08-30T08:25:37;6.00;;;2.90;;
22883;SDS011;13386;24.786;110.488;2022-08-30T08:28:08;3.47;;;2.47;;
22883;SDS011;13386;24.786;110.488;2022-08-30T08:30:42;5.30;;;2.92;;
22883;SDS011;13386;24.786;110.488;2022-08-30T08:33:14;6.78;;;2.70;;
22883;SDS011;13386;24.786;110.488;2022-08-30T08:35:48;5.40;;;3.00;;
22883;SDS011;13386;24.786;110.488;2022-08-30T08:38:18;5.47;;;2.92;;
22883;SDS011;13386;24.786;110.488;2022-08-30T08:40:52;5.57;;;2.53;;
22883;SDS011;13386;24.786;110.488;2022-08-30T08:43:26;5.35;;;2.47;;
22883;SDS011;13386;24.786;110.488;2022-08-30T08:46:04;6.13;;;2.95;;
22883;SDS011;13386;24.786;110.488;2022-08-30T08:48:39;8.37;;;2.60;;
22883;SDS011;13386;24.786;110.488;2022-08-30T08:51:12;5.07;;;2.67;;
22883;SDS011;13386;24.786;110.488;2022-08-30T08:54:00;6.32;;;2.63;;
22883;SDS011;13386;24.786;110.488;2022-08-30T08:56:34;6.22;;;2.60;;
22883;SDS011;13386;24.786;110.488;2022-08-30T08:59:06;8.23;;;2.50;;
22883;SDS011;13386;24.786;110.488;2022-08-30T09:01:39;5.53;;;2.55;;
22883;SDS011;13386;24.786;110.488;2022-08-30T09:04:18;5.45;;;2.83;;
22883;SDS011;13386;24.786;110.488;2022-08-30T09:06:51;5.22;;;2.60;;
22883;SDS011;13386;24.786;110.488;2022-08-30T09:09:24;4.65;;;2.50;;
22883;SDS011;13386;24.786;110.488;2022-08-30T09:11:55;11.30;;;2.63;;
22883;SDS011;13386;24.786;110.488;2022-08-30T09:14:27;15.93;;;4.82;;
22883;SDS011;13386;24.786;110.488;2022-08-30T09:17:04;7.75;;;3.10;;
22883;SDS011;13386;24.786;110.488;2022-08-30T09:19:39;4.97;;;2.58;;
22883;SDS011;13386;24.786;110.488;2022-08-30T09:22:15;6.20;;;2.83;;
22883;SDS011;13386;24.786;110.488;2022-08-30T09:24:50;6.32;;;2.78;;
22883;SDS011;13386;24.786;110.488;2022-08-30T09:27:24;8.80;;;2.67;;
22883;SDS011;13386;24.786;110.488;2022-08-30T09:30:00;5.53;;;2.63;;
22883;SDS011;13386;24.786;110.488;2022-08-30T09:32:35;6.45;;;2.90;;
22883;SDS011;13386;24.786;110.488;2022-08-30T09:35:08;7.82;;;2.92;;
22883;SDS011;13386;24.786;110.488;2022-08-30T09:37:46;6.73;;;3.10;;
22883;SDS011;13386;24.786;110.488;2022-08-30T09:40:21;5.10;;;2.72;;
22883;SDS011;13386;24.786;110.488;2022-08-30T09:42:58;5.25;;;2.70;;
22883;SDS011;13386;24.786;110.488;2022-08-30T09:45:30;10.93;;;2.95;;
22883;SDS011;13386;24.786;110.488;2022-08-30T09:50:51;4.25;;;2.42;;
22883;SDS011;13386;24.786;110.488;2022-08-30T09:53:29;7.38;;;2.47;;
22883;SDS011;13386;24.786;110.488;2022-08-30T09:56:04;6.78;;;2.83;;
22883;SDS011;13386;24.786;110.488;2022-08-30T09:58:39;6.97;;;2.85;;
22883;SDS011;13386;24.786;110.488;2022-08-30T10:01:13;7.15;;;3.00;;
22883;SDS011;13386;24.786;110.488;2022-08-30T10:03:46;7.43;;;2.70;;
22883;SDS011;13386;24.786;110.488;2022-08-30T10:06:24;5.57;;;2.53;;
22883;SDS011;13386;24.786;110.488;2022-08-30T10:09:00;7.22;;;2.92;;
22883;SDS011;13386;24.786;110.488;2022-08-30T10:11:34;7.65;;;2.90;;
22883;SDS011;13386;24.786;110.488;2022-08-30T10:14:12;9.38;;;4.28;;
22883;SDS011;13386;24.786;110.488;2022-08-30T10:16:47;10.95;;;3.88;;
22883;SDS011;13386;24.786;110.488;2022-08-30T10:19:24;7.32;;;3.05;;
22883;SDS011;13386;24.786;110.488;2022-08-30T10:22:00;12.20;;;3.58;;
22883;SDS011;13386;24.786;110.488;2022-08-30T10:24:38;11.65;;;3.97;;
22883;SDS011;13386;24.786;110.488;2022-08-30T10:27:12;16.23;;;4.95;;
22883;SDS011;13386;24.786;110.488;2022-08-30T10:29:50;11.32;;;4.10;;
22883;SDS011;13386;24.786;110.488;2022-08-30T10:32:26;10.73;;;4.28;;
22883;SDS011;13386;24.786;110.488;2022-08-30T10:35:00;11.50;;;4.13;;
22883;SDS011;13386;24.786;110.488;2022-08-30T10:37:34;11.63;;;4.47;;
22883;SDS011;13386;24.786;110.488;2022-08-30T10:40:10;10.18;;;4.50;;
22883;SDS011;13386;24.786;110.488;2022-08-30T10:42:54;12.77;;;4.35;;
22883;SDS011;13386;24.786;110.488;2022-08-30T10:45:25;11.23;;;4.68;;
22883;SDS011;13386;24.786;110.488;2022-08-30T10:47:59;10.48;;;4.25;;
22883;SDS011;13386;24.786;110.488;2022-08-30T10:50:33;12.97;;;4.30;;
22883;SDS011;13386;24.786;110.488;2022-08-30T10:53:08;10.00;;;3.92;;
22883;SDS011;13386;24.786;110.488;2022-08-30T10:55:40;14.10;;;4.68;;
22883;SDS011;13386;24.786;110.488;2022-08-30T10:58:13;11.65;;;5.03;;
22883;SDS011;13386;24.786;110.488;2022-08-30T11:00:49;14.20;;;4.85;;
22883;SDS011;13386;24.786;110.488;2022-08-30T11:03:32;17.40;;;5.07;;
22883;SDS011;13386;24.786;110.488;2022-08-30T11:06:12;12.30;;;4.68;;
22883;SDS011;13386;24.786;110.488;2022-08-30T11:08:58;13.55;;;5.10;;
22883;SDS011;13386;24.786;110.488;2022-08-30T11:11:36;15.38;;;5.22;;
22883;SDS011;13386;24.786;110.488;2022-08-30T11:14:09;12.57;;;4.90;;
22883;SDS011;13386;24.786;110.488;2022-08-30T11:16:44;12.15;;;4.93;;
22883;SDS011;13386;24.786;110.488;2022-08-30T11:19:16;10.27;;;4.75;;
22883;SDS011;13386;24.786;110.488;2022-08-30T11:21:49;10.77;;;4.80;;
22883;SDS011;13386;24.786;110.488;2022-08-30T11:24:28;11.23;;;4.85;;
22883;SDS011;13386;24.786;110.488;2022-08-30T11:26:59;12.18;;;5.10;;
22883;SDS011;13386;24.786;110.488;2022-08-30T11:35:01;47.25;;;16.80;;
22883;SDS011;13386;24.786;110.488;2022-08-30T11:37:35;55.72;;;20.98;;
22883;SDS011;13386;24.786;110.488;2022-08-30T11:43:50;50.58;;;18.15;;
22883;SDS011;13386;24.786;110.488;2022-08-30T11:46:34;53.45;;;17.67;;
22883;SDS011;13386;24.786;110.488;2022-08-30T11:54:53;58.45;;;19.60;;
22883;SDS011;13386;24.786;110.488;2022-08-30T11:57:29;70.95;;;25.00;;
22883;SDS011;13386;24.786;110.488;2022-08-30T12:00:05;75.50;;;26.73;;
22883;SDS011;13386;24.786;110.488;2022-08-30T12:02:42;69.03;;;22.10;;
22883;SDS011;13386;24.786;110.488;2022-08-30T12:08:05;37.70;;;13.20;;
22883;SDS011;13386;24.786;110.488;2022-08-30T12:10:40;29.00;;;10.52;;
22883;SDS011;13386;24.786;110.488;2022-08-30T12:13:13;31.05;;;11.88;;
22883;SDS011;13386;24.786;110.488;2022-08-30T12:16:08;33.35;;;11.48;;
22883;SDS011;13386;24.786;110.488;2022-08-30T12:18:42;32.67;;;12.90;;
22883;SDS011;13386;24.786;110.488;2022-08-30T12:21:14;34.33;;;12.38;;
22883;SDS011;13386;24.786;110.488;2022-08-30T12:23:53;24.17;;;9.63;;
22883;SDS011;13386;24.786;110.488;2022-08-30T12:26:31;21.95;;;8.70;;
22883;SDS011;13386;24.786;110.488;2022-08-30T12:29:12;23.08;;;8.18;;
22883;SDS011;13386;24.786;110.488;2022-08-30T12:31:47;21.17;;;8.30;;
22883;SDS011;13386;24.786;110.488;2022-08-30T12:34:25;20.15;;;7.97;;
22883;SDS011;13386;24.786;110.488;2022-08-30T12:37:00;22.70;;;8.07;;
22883;SDS011;13386;24.786;110.488;2022-08-30T12:39:32;17.08;;;7.00;;
22883;SDS011;13386;24.786;110.488;2022-08-30T12:42:11;19.90;;;7.57;;
22883;SDS011;13386;24.786;110.488;2022-08-30T12:44:43;23.73;;;7.20;;
22883;SDS011;13386;24.786;110.488;2022-08-30T12:47:20;17.85;;;6.90;;
22883;SDS011;13386;24.786;110.488;2022-08-30T12:49:55;21.88;;;7.07;;
22883;SDS011;13386;24.786;110.488;2022-08-30T12:52:30;21.38;;;7.47;;
22883;SDS011;13386;24.786;110.488;2022-08-30T12:55:09;22.13;;;7.13;;
22883;SDS011;13386;24.786;110.488;2022-08-30T12:57:42;17.92;;;6.80;;
22883;SDS011;13386;24.786;110.488;2022-08-30T13:00:22;18.60;;;6.95;;
22883;SDS011;13386;24.786;110.488;2022-08-30T13:02:55;17.73;;;6.72;;
22883;SDS011;13386;24.786;110.488;2022-08-30T13:05:28;20.02;;;7.45;;
22883;SDS011;13386;24.786;110.488;2022-08-30T13:08:13;18.55;;;6.45;;
22883;SDS011;13386;24.786;110.488;2022-08-30T13:10:54;25.50;;;9.18;;
22883;SDS011;13386;24.786;110.488;2022-08-30T13:13:27;26.80;;;9.18;;
22883;SDS011;13386;24.786;110.488;2022-08-30T13:16:09;26.50;;;8.77;;
22883;SDS011;13386;24.786;110.488;2022-08-30T13:18:44;25.75;;;8.77;;
22883;SDS011;13386;24.786;110.488;2022-08-30T13:21:20;23.88;;;8.68;;
22883;SDS011;13386;24.786;110.488;2022-08-30T13:23:57;18.42;;;7.07;;
22883;SDS011;13386;24.786;110.488;2022-08-30T13:26:30;15.85;;;6.72;;
22883;SDS011;13386;24.786;110.488;2022-08-30T13:29:04;19.10;;;7.78;;
22883;SDS011;13386;24.786;110.488;2022-08-30T13:31:36;21.67;;;7.82;;
22883;SDS011;13386;24.786;110.488;2022-08-30T13:34:12;15.85;;;6.07;;
22883;SDS011;13386;24.786;110.488;2022-08-30T13:36:47;16.58;;;5.78;;
22883;SDS011;13386;24.786;110.488;2022-08-30T13:39:21;13.73;;;6.13;;
22883;SDS011;13386;24.786;110.488;2022-08-30T13:41:57;14.55;;;5.43;;
22883;SDS011;13386;24.786;110.488;2022-08-30T13:44:31;19.23;;;6.20;;
22883;SDS011;13386;24.786;110.488;2022-08-30T13:47:02;13.27;;;5.50;;
22883;SDS011;13386;24.786;110.488;2022-08-30T13:52:25;13.38;;;5.40;;
22883;SDS011;13386;24.786;110.488;2022-08-30T13:54:56;14.70;;;5.60;;
22883;SDS011;13386;24.786;110.488;2022-08-30T13:57:31;12.50;;;5.43;;
22883;SDS011;13386;24.786;110.488;2022-08-30T14:00:02;12.98;;;4.82;;
22883;SDS011;13386;24.786;110.488;2022-08-30T14:02:44;11.70;;;4.72;;
22883;SDS011;13386;24.786;110.488;2022-08-30T14:05:16;15.50;;;5.40;;
22883;SDS011;13386;24.786;110.488;2022-08-30T14:07:50;13.13;;;5.25;;
22883;SDS011;13386;24.786;110.488;2022-08-30T14:10:23;9.70;;;4.70;;
22883;SDS011;13386;24.786;110.488;2022-08-30T14:13:07;12.15;;;4.57;;
22883;SDS011;13386;24.786;110.488;2022-08-30T14:15:39;10.77;;;5.10;;
22883;SDS011;13386;24.786;110.488;2022-08-30T14:18:10;10.98;;;4.28;;
22883;SDS011;13386;24.786;110.488;2022-08-30T14:20:41;12.20;;;4.15;;
22883;SDS011;13386;24.786;110.488;2022-08-30T14:23:13;10.85;;;3.90;;
22883;SDS011;13386;24.786;110.488;2022-08-30T14:25:44;10.45;;;4.47;;
22883;SDS011;13386;24.786;110.488;2022-08-30T14:28:15;12.57;;;4.60;;
22883;SDS011;13386;24.786;110.488;2022-08-30T14:30:47;8.57;;;3.97;;
22883;SDS011;13386;24.786;110.488;2022-08-30T14:33:28;12.98;;;4.40;;
22883;SDS011;13386;24.786;110.488;2022-08-30T14:36:03;10.77;;;4.35;;
22883;SDS011;13386;24.786;110.488;2022-08-30T14:38:38;9.60;;;4.28;;
22883;SDS011;13386;24.786;110.488;2022-08-30T14:41:09;6.75;;;3.88;;
22883;SDS011;13386;24.786;110.488;2022-08-30T14:43:45;10.38;;;3.90;;
22883;SDS011;13386;24.786;110.488;2022-08-30T14:46:18;9.07;;;4.10;;
22883;SDS011;13386;24.786;110.488;2022-08-30T14:48:54;9.65;;;4.05;;
22883;SDS011;13386;24.786;110.488;2022-08-30T14:51:25;8.05;;;3.60;;
22883;SDS011;13386;24.786;110.488;2022-08-30T14:54:02;8.93;;;3.88;;
22883;SDS011;13386;24.786;110.488;2022-08-30T14:56:35;8.70;;;3.88;;
22883;SDS011;13386;24.786;110.488;2022-08-30T14:59:07;9.10;;;3.75;;
22883;SDS011;13386;24.786;110.488;2022-08-30T15:01:42;8.25;;;3.85;;
22883;SDS011;13386;24.786;110.488;2022-08-30T15:04:15;9.65;;;4.10;;
22883;SDS011;13386;24.786;110.488;2022-08-30T15:06:47;9.88;;;3.97;;
22883;SDS011;13386;24.786;110.488;2022-08-30T15:09:25;7.90;;;3.67;;
22883;SDS011;13386;24.786;110.488;2022-08-30T15:11:59;8.35;;;3.55;;
22883;SDS011;13386;24.786;110.488;2022-08-30T15:14:31;7.25;;;3.22;;
22883;SDS011;13386;24.786;110.488;2022-08-30T15:17:03;9.45;;;3.83;;
22883;SDS011;13386;24.786;110.488;2022-08-30T15:19:38;8.73;;;3.65;;
22883;SDS011;13386;24.786;110.488;2022-08-30T15:22:13;6.13;;;3.47;;
22883;SDS011;13386;24.786;110.488;2022-08-30T15:24:46;7.28;;;3.55;;